Nearby METAR Reports

 

K9MN - St Mary Hospital, Minnesota, USA
Distance from station: SW 3mi, 4km
Updated: 04/22/2021 5:15am
Mostly cloudy
Mostly cloudy
 Wind from SW
Wind: SW 5 mph , 7 km/h
Temperature: 36°F , 2°C
Wind Chill: 32°F , 0°C
Dew Point: 25°F , -4°C
Humidity: 65%
Barometer: 30.02 inHg , 1016.6 hPa
Clouds: Mostly cloudy
Visibility: 10 miles , 16 km
Cloud details: Partly cloudy 6000 ft
Mostly cloudy 7500 ft
2021/04/22 10:15 K9MN 221015Z AUTO 22004KT 10SM SCT060 BKN075 02/M04 A3002 RMK AO1 T00201045
KRST - Rochester, Minnesota, USA
Distance from station: SSW 10mi, 16km
Updated: 04/22/2021 4:54am
Partly cloudy
Partly cloudy
 Wind from WSW
Wind: WSW 10 mph , 17 km/h
Temperature: 34°F , 1°C
Wind Chill: 26°F , -3°C
Dew Point: 23°F , -5°C
Humidity: 65%
Barometer: 30.03 inHg , 1016.9 hPa
Clouds: Partly cloudy
Visibility: 10 miles , 16 km
Cloud details: Partly cloudy 6500 ft
2021/04/22 09:54 KRST 220954Z 24009KT 10SM SCT065 01/M05 A3003 RMK AO2 SLP180 T00061050
 
KTOB - Dodge Center, Minnesota, USA
Distance from station: W 19mi, 30km
Updated: 04/22/2021 5:15am
Mostly cloudy
Mostly cloudy
 Wind from SW
Wind: SW 8 mph , 13 km/h
Temperature: 30°F , -1°C
Wind Chill: 22°F , -6°C
Dew Point: 23°F , -5°C
Humidity: 75%
Barometer: 30.01 inHg , 1016.3 hPa
Clouds: Mostly cloudy
Visibility: 10 miles , 16 km
Cloud details: Mostly cloudy 8000 ft
2021/04/22 10:15 KTOB 221015Z AUTO 22007KT 10SM BKN080 M01/M05 A3001 RMK AO2
KFKA - Preston, Minnesota, USA
Distance from station: SSE 28mi, 45km
Updated: 04/22/2021 5:15am
Mostly cloudy
Mostly cloudy
 Wind from WSW
Wind: WSW 6 mph , 9 km/h
Temperature: 32°F , 0°C
Wind Chill: 26°F , -3°C
Dew Point: 23°F , -5°C
Humidity: 69%
Barometer: 30.04 inHg , 1017.3 hPa
Clouds: Mostly cloudy
Visibility: 10 miles , 16 km
Cloud details: Mostly cloudy 6500 ft
2021/04/22 10:15 KFKA 221015Z AUTO 24005KT 10SM BKN065 00/M05 A3004 RMK AO2 T00031052
 
KAUM - Austin Muni, Minnesota, USA
Distance from station: SW 35mi, 57km
Updated: 04/22/2021 5:15am
Mostly cloudy
Mostly cloudy
 Wind from SW
Wind: SW 5 mph , 7 km/h
Temperature: 34°F , 1°C
Wind Chill: 29°F , -2°C
Dew Point: 25°F , -4°C
Humidity: 70%
Barometer: 30.03 inHg , 1016.9 hPa
Clouds: Mostly cloudy
Visibility: 10 miles , 16 km
Cloud details: Mostly cloudy 8000 ft
2021/04/22 10:15 KAUM 221015Z AUTO 22004KT 10SM BKN080 01/M04 A3003 RMK AO2
KONA - Winona Muni, Minnesota, USA
Distance from station: E 37mi, 59km
Updated: 04/22/2021 5:15am
Mostly cloudy
Mostly cloudy
 Wind from calm
Wind: Calm
Temperature: 32°F , 0°C
Dew Point: 28°F , -2°C
Humidity: 87%
Barometer: 30.05 inHg , 1017.6 hPa
Clouds: Mostly cloudy
Visibility: 10 miles , 16 km
Cloud details: Mostly cloudy 6500 ft
Mostly cloudy 8000 ft
2021/04/22 10:15 KONA 221015Z AUTO 00000KT 10SM BKN065 BKN080 00/M02 A3005 RMK AO2
 
KRGK - Red Wing, Minnesota, USA
Distance from station: N 38mi, 61km
Updated: 04/22/2021 5:15am
Partly cloudy
Partly cloudy
 Wind from ESE
Wind: ESE 3 mph , 6 km/h
Temperature: 28°F , -2°C
Dew Point: 25°F , -4°C
Humidity: 86%
Barometer: 30.01 inHg , 1016.3 hPa
Clouds: Partly cloudy
Visibility: 10 miles , 16 km
Cloud details: Partly cloudy 9000 ft
2021/04/22 10:15 KRGK 221015Z AUTO 11003KT 10SM SCT090 M02/M04 A3001 RMK AO2
KOWA - Owatonna, Minnesota, USA
Distance from station: W 41mi, 65km
Updated: 04/22/2021 5:13am
Overcast
Overcast
 Wind from SW
Wind: SW 8 mph , 13 km/h
Temperature: 34°F , 1°C
Wind Chill: 27°F , -3°C
Dew Point: 25°F , -4°C
Humidity: 70%
Barometer: 30.02 inHg , 1016.6 hPa
Clouds: Overcast
Visibility: 10 miles , 16 km
Cloud details: Overcast 9000 ft
2021/04/22 10:13 KOWA 221013Z AUTO 22007KT 10SM OVC090 01/M04 A3002 RMK AO2
 
KSYN - Stanton, Minnesota, USA
Distance from station: NW 42mi, 68km
Updated: 04/22/2021 5:15am
Overcast
Overcast
 Wind from S
Wind: S 7 mph , 11 km/h
Temperature: 36°F , 2°C
Wind Chill: 30°F , -1°C
Dew Point: 25°F , -4°C
Humidity: 65%
Barometer: 29.99 inHg , 1015.6 hPa
Clouds: Overcast
Visibility: 10 miles , 16 km
Cloud details: Overcast 8000 ft
2021/04/22 10:15 KSYN 221015Z AUTO 18006KT 10SM OVC080 02/M04 A2999 RMK AO2 T00151040
KFBL - Faribault Muni, Minnesota, USA
Distance from station: WNW 48mi, 77km
Updated: 04/22/2021 5:15am

 Wind from S
Wind: S 5 mph , 7 km/h
Temperature: 32°F , 0°C
Wind Chill: 27°F , -3°C
Dew Point: 27°F , -3°C
Humidity: 80%
Barometer: 30.01 inHg , 1016.3 hPa
Visibility: 10 miles , 16 km
2021/04/22 10:15 KFBL 221015Z AUTO 19004KT 10SM 00/M03 A3001 RMK AO2